createdAt,value
2019-01-30T00:00:37.396Z,11.57
2019-01-30T00:03:05.894Z,11.13
2019-01-30T00:05:34.363Z,11.97
2019-01-30T00:08:02.785Z,12.73
2019-01-30T00:10:31.255Z,13.23
2019-01-30T00:12:59.698Z,12.20
2019-01-30T00:15:28.172Z,12.07
2019-01-30T00:17:56.540Z,11.37
2019-01-30T00:20:25.787Z,10.87
2019-01-30T00:22:54.250Z,12.30
2019-01-30T00:25:24.013Z,10.90
2019-01-30T00:27:52.619Z,11.57
2019-01-30T00:30:21.811Z,11.70
2019-01-30T00:32:50.292Z,10.57
2019-01-30T00:35:19.819Z,11.57
2019-01-30T00:37:48.292Z,10.60
2019-01-30T00:40:17.531Z,12.47
2019-01-30T00:42:45.970Z,11.60
2019-01-30T00:45:14.499Z,10.20
2019-01-30T00:47:43.029Z,10.53
2019-01-30T00:50:12.059Z,11.47
2019-01-30T00:52:40.531Z,11.73
2019-01-30T00:55:08.995Z,10.70
2019-01-30T00:57:37.439Z,11.00
2019-01-30T01:00:14.367Z,10.73
2019-01-30T01:02:37.827Z,10.23
2019-01-30T01:05:06.497Z,10.90
2019-01-30T01:07:34.928Z,10.87
2019-01-30T01:10:04.167Z,11.87
2019-01-30T01:12:33.526Z,10.47
2019-01-30T01:15:02.044Z,10.93
2019-01-30T01:17:30.663Z,11.70
2019-01-30T01:19:59.194Z,11.20
2019-01-30T01:22:27.679Z,11.23
2019-01-30T01:24:56.049Z,11.77
2019-01-30T01:27:24.473Z,11.47
2019-01-30T01:29:52.880Z,12.93
2019-01-30T01:32:21.324Z,11.23
2019-01-30T01:34:49.804Z,12.20
2019-01-30T01:37:18.272Z,12.00
2019-01-30T01:39:47.250Z,12.73
2019-01-30T01:42:15.687Z,11.90
2019-01-30T01:44:44.156Z,13.67
2019-01-30T01:47:12.671Z,12.43
2019-01-30T01:49:41.040Z,12.47
2019-01-30T01:52:09.540Z,12.47
2019-01-30T01:54:37.895Z,12.30
2019-01-30T01:57:06.243Z,14.40
2019-01-30T01:59:34.724Z,13.77
2019-01-30T02:02:03.091Z,13.23
2019-01-30T02:04:31.643Z,14.20
2019-01-30T02:07:00.086Z,13.70
2019-01-30T02:09:28.482Z,14.63
2019-01-30T02:11:56.903Z,15.00
2019-01-30T02:14:25.459Z,12.67
2019-01-30T02:16:53.807Z,14.07
2019-01-30T02:19:22.230Z,13.50
2019-01-30T02:21:50.691Z,15.20
2019-01-30T02:24:19.144Z,14.20
2019-01-30T02:26:47.575Z,14.37
2019-01-30T02:29:16.071Z,15.77
2019-01-30T02:31:44.472Z,13.90
2019-01-30T02:34:12.984Z,15.10
2019-01-30T02:36:57.118Z,14.97
2019-01-30T02:39:25.686Z,14.17
2019-01-30T02:41:54.125Z,14.20
2019-01-30T02:44:41.695Z,13.70
2019-01-30T02:47:29.284Z,13.10
2019-01-30T02:50:16.854Z,13.40
2019-01-30T02:53:04.448Z,13.33
2019-01-30T04:43:37.900Z,12.83
2019-01-30T04:49:14.765Z,12.40
2019-01-30T04:52:02.356Z,12.73
2019-01-30T04:54:49.940Z,11.43
2019-01-30T04:57:37.524Z,12.63
2019-01-30T05:00:25.116Z,12.33
2019-01-30T05:03:12.697Z,12.77
2019-01-30T05:06:00.303Z,12.47
2019-01-30T05:08:47.866Z,12.73
2019-01-30T05:11:35.462Z,12.60
2019-01-30T05:14:23.042Z,11.70
2019-01-30T05:17:10.698Z,13.03
2019-01-30T05:19:58.275Z,12.90
2019-01-30T05:25:41.865Z,12.13
2019-01-30T05:28:29.444Z,12.47
2019-01-30T05:31:17.052Z,11.27
2019-01-30T05:34:04.648Z,12.57
2019-01-30T05:36:52.235Z,11.80
2019-01-30T05:39:39.804Z,12.83
2019-01-30T05:42:27.402Z,12.40
2019-01-30T05:54:14.467Z,11.00
2019-01-30T05:59:51.221Z,11.50
2019-01-30T06:02:38.795Z,12.60
2019-01-30T06:05:26.439Z,13.10
2019-01-30T06:08:14.014Z,12.37
2019-01-30T06:11:01.610Z,12.53
2019-01-30T06:13:49.260Z,12.57
2019-01-30T06:16:36.884Z,12.60
2019-01-30T06:19:24.513Z,12.83
2019-01-30T06:22:12.249Z,11.50
2019-01-30T06:24:59.913Z,12.47
2019-01-30T06:27:28.461Z,12.70
2019-01-30T06:30:28.678Z,14.80
2019-01-30T06:33:05.732Z,16.87
2019-01-30T06:35:53.338Z,13.43
2019-01-30T06:38:40.900Z,14.98
2019-01-30T06:41:28.498Z,16.35
2019-01-30T06:44:16.072Z,12.77
2019-01-30T06:47:03.804Z,15.23
2019-01-30T06:49:51.384Z,14.43
2019-01-30T06:52:39.036Z,12.70
2019-01-30T06:58:20.298Z,12.43
2019-01-30T07:01:07.876Z,12.37
2019-01-30T07:03:55.479Z,13.60
2019-01-30T07:06:43.157Z,13.27
2019-01-30T07:09:30.730Z,11.33
2019-01-30T07:12:18.283Z,14.90
2019-01-30T07:15:06.173Z,12.00
2019-01-30T07:17:53.764Z,12.97
2019-01-30T07:20:41.368Z,12.27
2019-01-30T07:23:28.956Z,13.43
2019-01-30T07:26:16.561Z,12.20
2019-01-30T07:29:04.131Z,12.17
2019-01-30T07:31:51.728Z,12.80
2019-01-30T07:34:39.293Z,12.60
2019-01-30T07:37:26.940Z,12.63
2019-01-30T07:40:14.544Z,13.10
2019-01-30T07:43:02.151Z,13.20
2019-01-30T07:45:49.803Z,12.97
2019-01-30T07:51:28.452Z,12.77
2019-01-30T07:54:08.412Z,12.80
2019-01-30T07:56:48.797Z,13.50
2019-01-30T07:59:29.006Z,12.00
2019-01-30T08:02:09.197Z,12.77
2019-01-30T08:04:49.440Z,12.23
2019-01-30T08:07:29.816Z,12.87
2019-01-30T08:10:09.767Z,10.87
2019-01-30T08:12:49.913Z,11.23
2019-01-30T08:15:30.144Z,11.67
2019-01-30T08:18:10.417Z,12.30
2019-01-30T08:20:48.820Z,12.40
2019-01-30T08:32:15.881Z,13.00
2019-01-30T08:35:05.145Z,13.10
2019-01-30T08:37:52.712Z,12.47
2019-01-30T08:40:21.177Z,12.07
2019-01-30T08:43:08.779Z,12.13
2019-01-30T08:45:56.328Z,11.93
2019-01-30T08:48:43.951Z,12.33
2019-01-30T08:51:31.534Z,13.77
2019-01-30T08:54:19.533Z,11.43
2019-01-30T08:57:18.931Z,11.27
2019-01-30T08:59:56.423Z,11.37
2019-01-30T09:02:24.877Z,12.20
2019-01-30T09:05:12.554Z,10.97
2019-01-30T09:08:00.115Z,11.70
2019-01-30T09:10:47.723Z,12.13
2019-01-30T09:13:35.325Z,11.03
2019-01-30T09:16:22.920Z,11.13
2019-01-30T09:19:10.522Z,10.90
2019-01-30T09:21:58.122Z,11.93
2019-01-30T09:24:45.676Z,11.57
2019-01-30T09:27:33.295Z,11.17
2019-01-30T09:30:01.866Z,12.77
2019-01-30T09:32:49.469Z,11.83
2019-01-30T09:53:33.717Z,12.97
2019-01-30T09:56:21.386Z,14.23
2019-01-30T09:59:08.964Z,14.63
2019-01-30T10:01:56.556Z,14.00
2019-01-30T10:04:44.193Z,13.97
2019-01-30T10:07:31.781Z,14.67
2019-01-30T10:10:19.517Z,14.73
2019-01-30T10:16:14.259Z,14.33
2019-01-30T10:19:01.957Z,15.37
2019-01-30T10:21:49.595Z,14.47
2019-01-30T10:24:56.299Z,14.33
2019-01-30T10:27:44.107Z,14.37
2019-01-30T10:30:31.669Z,15.40
2019-01-30T10:33:19.534Z,16.60
2019-01-30T10:36:07.128Z,16.30
2019-01-30T10:38:54.765Z,15.37
2019-01-30T10:41:42.409Z,15.73
2019-01-30T10:44:30.020Z,16.53
2019-01-30T10:47:17.605Z,15.93
2019-01-30T10:49:46.119Z,16.47
2019-01-30T10:52:33.659Z,16.83
2019-01-30T11:04:02.204Z,16.97
2019-01-30T11:06:49.760Z,18.87
2019-01-30T11:09:37.384Z,16.57
2019-01-30T11:12:25.012Z,16.77
2019-01-30T11:15:12.609Z,16.23
2019-01-30T11:18:00.243Z,16.57
2019-01-30T11:20:47.997Z,16.77
2019-01-30T11:23:35.562Z,18.40
2019-01-30T11:26:04.222Z,17.10
2019-01-30T11:31:41.020Z,17.87
2019-01-30T11:34:28.593Z,18.00
2019-01-30T11:37:16.304Z,17.13
2019-01-30T11:40:03.889Z,18.50
2019-01-30T11:42:51.532Z,18.53
2019-01-30T11:45:39.243Z,16.43
2019-01-30T11:48:26.895Z,16.37
2019-01-30T11:54:42.807Z,17.73
2019-01-30T11:57:30.475Z,19.60
2019-01-30T12:03:17.468Z,17.30
2019-01-30T12:08:58.212Z,16.83
2019-01-30T12:11:45.804Z,16.90
2019-01-30T12:14:33.462Z,18.10
2019-01-30T12:17:21.643Z,17.70
2019-01-30T12:20:09.249Z,17.03
2019-01-30T12:22:57.111Z,15.97
2019-01-30T12:29:01.133Z,17.13
2019-01-30T12:31:48.878Z,16.73
2019-01-30T12:34:36.448Z,16.73
2019-01-30T12:37:24.060Z,16.47
2019-01-30T12:40:11.769Z,16.23
2019-01-30T12:42:59.373Z,16.80
2019-01-30T12:45:46.959Z,15.43
2019-01-30T12:48:34.543Z,18.47
2019-01-30T12:51:22.109Z,17.00
2019-01-30T12:54:09.772Z,17.07
2019-01-30T12:56:57.382Z,19.13
2019-01-30T12:59:45.358Z,20.47
2019-01-30T13:11:15.787Z,16.70
2019-01-30T13:14:03.343Z,17.40
2019-01-30T13:16:50.928Z,16.90
2019-01-30T13:19:38.581Z,19.57
2019-01-30T13:22:26.255Z,19.00
2019-01-30T13:25:13.920Z,16.70
2019-01-30T13:28:01.486Z,16.37
2019-01-30T13:31:08.207Z,17.60
2019-01-30T13:39:47.431Z,17.20
2019-01-30T13:42:35.001Z,17.87
2019-01-30T13:48:18.437Z,16.87
2019-01-30T13:51:06.325Z,15.87
2019-01-30T13:53:53.968Z,16.40
2019-01-30T13:56:22.465Z,18.00
2019-01-30T13:59:10.081Z,17.50
2019-01-30T18:25:39.172Z,44.00
2019-01-30T18:28:26.821Z,45.93
2019-01-30T18:31:14.451Z,44.40
2019-01-30T18:34:02.047Z,44.00
2019-01-30T18:36:49.662Z,45.03
2019-01-30T18:39:37.249Z,44.93
2019-01-30T18:42:24.875Z,43.17
2019-01-30T18:48:21.994Z,45.60
2019-01-30T18:51:09.854Z,44.50
2019-01-30T18:53:57.456Z,47.53
2019-01-30T18:56:45.053Z,47.07
2019-01-30T18:59:32.652Z,46.90
2019-01-30T19:02:20.209Z,51.43
2019-01-30T19:05:07.812Z,58.05
2019-01-30T19:07:55.425Z,55.23
2019-01-30T19:20:30.051Z,55.53
2019-01-30T19:22:59.764Z,48.63
2019-01-30T19:25:47.485Z,51.33
2019-01-30T19:28:16.474Z,106.70
2019-01-30T19:30:45.334Z,107.30
2019-01-30T19:33:14.085Z,104.83
2019-01-30T19:35:42.641Z,109.43
2019-01-30T19:38:11.212Z,74.47
2019-01-30T19:40:39.973Z,54.53
2019-01-30T19:43:08.793Z,63.77
2019-01-30T19:45:37.504Z,95.53
2019-01-30T19:48:08.373Z,71.07
2019-01-30T19:50:36.993Z,74.37
2019-01-30T19:53:05.875Z,70.87
2019-01-30T19:55:34.860Z,65.90
2019-01-30T19:58:03.623Z,63.60
2019-01-30T20:00:33.427Z,59.57
2019-01-30T20:03:02.488Z,60.40
2019-01-30T20:05:31.226Z,64.50
2019-01-30T20:08:00.061Z,62.40
2019-01-30T20:10:29.579Z,58.43
2019-01-30T20:12:58.036Z,61.83
2019-01-30T20:15:26.834Z,65.73
2019-01-30T20:17:55.462Z,57.73
2019-01-30T20:20:24.945Z,60.33
2019-01-30T20:22:54.455Z,55.60
2019-01-30T20:25:24.204Z,64.43
2019-01-30T20:27:52.748Z,76.33
2019-01-30T20:30:21.903Z,63.53
2019-01-30T20:32:50.680Z,57.60
2019-01-30T20:35:20.149Z,64.70
2019-01-30T20:37:48.594Z,57.73
2019-01-30T20:40:18.167Z,54.47
2019-01-30T20:42:46.723Z,57.63
2019-01-30T20:45:15.239Z,55.67
2019-01-30T20:47:43.771Z,58.80
2019-01-30T20:50:16.260Z,57.20
2019-01-30T20:52:44.739Z,58.23
2019-01-30T20:55:13.603Z,53.70
2019-01-30T20:57:45.049Z,54.70
2019-01-30T21:00:22.740Z,52.77
2019-01-30T21:02:51.420Z,54.87
2019-01-30T21:05:19.939Z,51.63
2019-01-30T21:07:50.986Z,52.70
2019-01-30T21:10:21.432Z,52.07
2019-01-30T21:12:50.564Z,53.00
2019-01-30T21:15:18.987Z,53.37
2019-01-30T21:17:47.761Z,54.53
2019-01-30T21:20:16.327Z,54.20
2019-01-30T21:22:46.303Z,53.80
2019-01-30T21:25:18.800Z,53.73
2019-01-30T21:27:47.485Z,57.00
2019-01-30T21:30:17.357Z,54.00
2019-01-30T21:32:45.956Z,53.70
2019-01-30T21:35:14.507Z,52.10
2019-01-30T21:37:49.191Z,53.57
2019-01-30T21:40:14.364Z,52.97
2019-01-30T21:42:42.780Z,52.67
2019-01-30T21:45:12.255Z,53.37
2019-01-30T21:47:42.697Z,52.77
2019-01-30T21:50:11.683Z,54.13
2019-01-30T21:52:40.111Z,53.23
2019-01-30T21:55:11.254Z,54.23
2019-01-30T21:57:39.814Z,53.97
2019-01-30T22:00:09.995Z,53.73
2019-01-30T22:02:38.859Z,54.30
2019-01-30T22:05:07.591Z,52.83
2019-01-30T22:07:36.632Z,53.70
2019-01-30T22:10:06.548Z,56.27
2019-01-30T22:12:36.311Z,53.50
2019-01-30T22:15:05.683Z,54.40
2019-01-30T22:17:34.337Z,56.23
2019-01-30T22:20:02.747Z,54.73
2019-01-30T22:22:31.927Z,53.87
2019-01-30T22:25:00.614Z,53.40
2019-01-30T22:27:29.218Z,55.40
2019-01-30T22:29:57.962Z,53.57
2019-01-30T22:32:27.507Z,54.03
2019-01-30T22:34:56.159Z,50.47
2019-01-30T22:37:24.507Z,47.67
2019-01-30T22:39:54.044Z,50.90
2019-01-30T22:42:22.399Z,47.70
2019-01-30T22:44:50.743Z,50.50
2019-01-30T22:47:20.032Z,50.77
2019-01-30T22:49:48.978Z,46.20
2019-01-30T22:52:17.437Z,47.17
2019-01-30T22:54:46.245Z,44.50
2019-01-30T22:57:16.208Z,45.07
2019-01-30T22:59:44.927Z,44.17
2019-01-30T23:02:13.562Z,44.10
2019-01-30T23:04:44.876Z,44.10
2019-01-30T23:07:32.818Z,43.27
2019-01-30T23:10:20.467Z,41.43
2019-01-30T23:13:23.251Z,40.57
2019-01-30T23:16:02.120Z,39.03
2019-01-30T23:18:39.959Z,37.50
2019-01-30T23:21:17.155Z,41.23
2019-01-30T23:24:04.712Z,40.73
2019-01-30T23:26:35.607Z,40.13
2019-01-30T23:29:26.593Z,40.23
2019-01-30T23:32:13.015Z,38.10
2019-01-30T23:35:00.605Z,40.60
2019-01-30T23:37:52.845Z,38.70
2019-01-30T23:40:45.666Z,40.17
2019-01-30T23:43:19.272Z,38.70
2019-01-30T23:46:16.123Z,36.40
2019-01-30T23:49:01.408Z,36.90
2019-01-30T23:51:33.539Z,37.67
2019-01-30T23:54:06.551Z,37.93
2019-01-30T23:56:56.417Z,38.40
2019-01-30T23:59:46.775Z,38.97
